sensor_id;sensor_type;location;lat;lon;timestamp;P1;durP1;ratioP1;P2;durP2;ratioP2
14528;SDS011;7351;51.194;4.098;2023-01-29T00:01:14;18.73;;;17.50;;
14528;SDS011;7351;51.194;4.098;2023-01-29T00:03:41;19.70;;;18.17;;
14528;SDS011;7351;51.194;4.098;2023-01-29T00:06:08;19.80;;;18.43;;
14528;SDS011;7351;51.194;4.098;2023-01-29T00:08:38;18.90;;;17.80;;
14528;SDS011;7351;51.194;4.098;2023-01-29T00:11:06;17.80;;;16.80;;
14528;SDS011;7351;51.194;4.098;2023-01-29T00:13:34;17.77;;;16.57;;
14528;SDS011;7351;51.194;4.098;2023-01-29T00:16:01;18.30;;;17.10;;
14528;SDS011;7351;51.194;4.098;2023-01-29T00:18:29;18.03;;;16.93;;
14528;SDS011;7351;51.194;4.098;2023-01-29T00:20:56;19.03;;;17.77;;
14528;SDS011;7351;51.194;4.098;2023-01-29T00:23:23;18.53;;;17.37;;
14528;SDS011;7351;51.194;4.098;2023-01-29T00:25:51;18.23;;;17.13;;
14528;SDS011;7351;51.194;4.098;2023-01-29T00:28:18;19.83;;;18.63;;
14528;SDS011;7351;51.194;4.098;2023-01-29T00:30:45;19.83;;;18.37;;
14528;SDS011;7351;51.194;4.098;2023-01-29T00:33:12;18.27;;;17.07;;
14528;SDS011;7351;51.194;4.098;2023-01-29T00:35:39;19.60;;;18.20;;
14528;SDS011;7351;51.194;4.098;2023-01-29T00:38:07;18.03;;;16.93;;
14528;SDS011;7351;51.194;4.098;2023-01-29T00:40:35;18.27;;;16.97;;
14528;SDS011;7351;51.194;4.098;2023-01-29T00:43:19;19.60;;;18.37;;
14528;SDS011;7351;51.194;4.098;2023-01-29T00:46:03;19.40;;;18.17;;
14528;SDS011;7351;51.194;4.098;2023-01-29T00:48:31;18.83;;;17.67;;
14528;SDS011;7351;51.194;4.098;2023-01-29T00:50:59;18.47;;;17.27;;
14528;SDS011;7351;51.194;4.098;2023-01-29T00:53:26;19.70;;;18.40;;
14528;SDS011;7351;51.194;4.098;2023-01-29T00:55:53;19.63;;;18.37;;
14528;SDS011;7351;51.194;4.098;2023-01-29T00:58:22;20.23;;;18.93;;
14528;SDS011;7351;51.194;4.098;2023-01-29T01:00:52;19.50;;;18.30;;
14528;SDS011;7351;51.194;4.098;2023-01-29T01:03:20;18.70;;;17.50;;
14528;SDS011;7351;51.194;4.098;2023-01-29T01:05:46;19.37;;;18.17;;
14528;SDS011;7351;51.194;4.098;2023-01-29T01:08:13;18.23;;;17.03;;
14528;SDS011;7351;51.194;4.098;2023-01-29T01:10:58;19.37;;;18.17;;
14528;SDS011;7351;51.194;4.098;2023-01-29T01:13:28;19.77;;;18.27;;
14528;SDS011;7351;51.194;4.098;2023-01-29T01:15:56;19.93;;;18.67;;
14528;SDS011;7351;51.194;4.098;2023-01-29T01:18:23;18.87;;;17.67;;
14528;SDS011;7351;51.194;4.098;2023-01-29T01:20:55;19.60;;;18.30;;
14528;SDS011;7351;51.194;4.098;2023-01-29T01:23:23;20.03;;;18.63;;
14528;SDS011;7351;51.194;4.098;2023-01-29T01:25:50;18.53;;;17.50;;
14528;SDS011;7351;51.194;4.098;2023-01-29T01:28:17;20.50;;;18.90;;
14528;SDS011;7351;51.194;4.098;2023-01-29T01:30:45;19.33;;;18.13;;
14528;SDS011;7351;51.194;4.098;2023-01-29T01:33:12;19.37;;;18.07;;
14528;SDS011;7351;51.194;4.098;2023-01-29T01:35:39;19.80;;;18.40;;
14528;SDS011;7351;51.194;4.098;2023-01-29T01:38:06;19.17;;;17.87;;
14528;SDS011;7351;51.194;4.098;2023-01-29T01:40:33;18.23;;;17.17;;
14528;SDS011;7351;51.194;4.098;2023-01-29T01:43:00;19.80;;;18.60;;
14528;SDS011;7351;51.194;4.098;2023-01-29T01:45:28;20.27;;;18.97;;
14528;SDS011;7351;51.194;4.098;2023-01-29T01:47:59;20.17;;;18.87;;
14528;SDS011;7351;51.194;4.098;2023-01-29T01:50:32;19.57;;;18.37;;
14528;SDS011;7351;51.194;4.098;2023-01-29T01:53:04;19.33;;;18.03;;
14528;SDS011;7351;51.194;4.098;2023-01-29T01:55:34;20.67;;;19.27;;
14528;SDS011;7351;51.194;4.098;2023-01-29T01:58:05;19.23;;;18.03;;
14528;SDS011;7351;51.194;4.098;2023-01-29T02:00:37;18.77;;;17.67;;
14528;SDS011;7351;51.194;4.098;2023-01-29T02:03:06;18.50;;;17.30;;
14528;SDS011;7351;51.194;4.098;2023-01-29T02:05:52;20.07;;;18.87;;
14528;SDS011;7351;51.194;4.098;2023-01-29T02:08:42;20.13;;;18.73;;
14528;SDS011;7351;51.194;4.098;2023-01-29T02:11:35;19.43;;;18.23;;
14528;SDS011;7351;51.194;4.098;2023-01-29T02:14:03;20.60;;;19.33;;
14528;SDS011;7351;51.194;4.098;2023-01-29T02:16:30;19.30;;;18.00;;
14528;SDS011;7351;51.194;4.098;2023-01-29T02:19:01;19.37;;;18.17;;
14528;SDS011;7351;51.194;4.098;2023-01-29T02:21:39;19.50;;;18.30;;
14528;SDS011;7351;51.194;4.098;2023-01-29T02:27:37;20.73;;;19.10;;
14528;SDS011;7351;51.194;4.098;2023-01-29T02:30:19;19.70;;;18.40;;
14528;SDS011;7351;51.194;4.098;2023-01-29T02:32:55;19.93;;;18.73;;
14528;SDS011;7351;51.194;4.098;2023-01-29T02:35:33;18.40;;;17.20;;
14528;SDS011;7351;51.194;4.098;2023-01-29T02:38:09;19.90;;;18.57;;
14528;SDS011;7351;51.194;4.098;2023-01-29T02:40:42;20.50;;;19.10;;
14528;SDS011;7351;51.194;4.098;2023-01-29T02:43:17;18.80;;;17.50;;
14528;SDS011;7351;51.194;4.098;2023-01-29T02:45:59;20.53;;;19.23;;
14528;SDS011;7351;51.194;4.098;2023-01-29T02:48:32;17.83;;;16.73;;
14528;SDS011;7351;51.194;4.098;2023-01-29T02:51:07;17.93;;;16.93;;
14528;SDS011;7351;51.194;4.098;2023-01-29T02:53:41;19.27;;;17.97;;
14528;SDS011;7351;51.194;4.098;2023-01-29T02:56:15;18.70;;;17.60;;
14528;SDS011;7351;51.194;4.098;2023-01-29T02:58:45;19.27;;;18.07;;
14528;SDS011;7351;51.194;4.098;2023-01-29T03:01:29;17.20;;;16.20;;
14528;SDS011;7351;51.194;4.098;2023-01-29T03:04:00;19.03;;;17.83;;
14528;SDS011;7351;51.194;4.098;2023-01-29T03:06:34;19.00;;;17.80;;
14528;SDS011;7351;51.194;4.098;2023-01-29T03:09:04;18.20;;;16.73;;
14528;SDS011;7351;51.194;4.098;2023-01-29T03:11:36;17.80;;;16.70;;
14528;SDS011;7351;51.194;4.098;2023-01-29T03:14:07;18.10;;;16.80;;
14528;SDS011;7351;51.194;4.098;2023-01-29T03:16:40;19.53;;;18.07;;
14528;SDS011;7351;51.194;4.098;2023-01-29T03:19:12;19.00;;;17.90;;
14528;SDS011;7351;51.194;4.098;2023-01-29T03:21:42;18.07;;;16.87;;
14528;SDS011;7351;51.194;4.098;2023-01-29T03:24:20;18.57;;;17.47;;
14528;SDS011;7351;51.194;4.098;2023-01-29T03:27:09;19.30;;;18.10;;
14528;SDS011;7351;51.194;4.098;2023-01-29T03:29:56;18.13;;;17.03;;
14528;SDS011;7351;51.194;4.098;2023-01-29T03:32:43;18.80;;;17.70;;
14528;SDS011;7351;51.194;4.098;2023-01-29T03:35:13;18.80;;;17.63;;
14528;SDS011;7351;51.194;4.098;2023-01-29T03:38:00;19.23;;;18.03;;
14528;SDS011;7351;51.194;4.098;2023-01-29T03:40:28;19.20;;;18.03;;
14528;SDS011;7351;51.194;4.098;2023-01-29T03:43:04;17.80;;;16.70;;
14528;SDS011;7351;51.194;4.098;2023-01-29T03:45:37;18.77;;;17.67;;
14528;SDS011;7351;51.194;4.098;2023-01-29T03:48:12;18.17;;;16.77;;
14528;SDS011;7351;51.194;4.098;2023-01-29T03:50:47;18.57;;;17.33;;
14528;SDS011;7351;51.194;4.098;2023-01-29T03:53:22;18.07;;;16.97;;
14528;SDS011;7351;51.194;4.098;2023-01-29T03:55:54;17.40;;;16.37;;
14528;SDS011;7351;51.194;4.098;2023-01-29T03:58:28;18.90;;;17.70;;
14528;SDS011;7351;51.194;4.098;2023-01-29T04:01:01;18.73;;;17.63;;
14528;SDS011;7351;51.194;4.098;2023-01-29T04:03:35;17.97;;;16.87;;
14528;SDS011;7351;51.194;4.098;2023-01-29T04:06:06;18.13;;;17.03;;
14528;SDS011;7351;51.194;4.098;2023-01-29T04:08:38;17.90;;;16.80;;
14528;SDS011;7351;51.194;4.098;2023-01-29T04:11:17;18.10;;;17.00;;
14528;SDS011;7351;51.194;4.098;2023-01-29T04:13:46;17.57;;;16.57;;
14528;SDS011;7351;51.194;4.098;2023-01-29T04:16:15;17.03;;;16.03;;
14528;SDS011;7351;51.194;4.098;2023-01-29T04:18:47;17.83;;;16.63;;
14528;SDS011;7351;51.194;4.098;2023-01-29T04:21:14;18.80;;;17.60;;
14528;SDS011;7351;51.194;4.098;2023-01-29T04:23:42;18.30;;;17.20;;
14528;SDS011;7351;51.194;4.098;2023-01-29T04:26:17;17.90;;;16.90;;
14528;SDS011;7351;51.194;4.098;2023-01-29T04:28:54;18.37;;;17.20;;
14528;SDS011;7351;51.194;4.098;2023-01-29T04:31:32;19.03;;;17.83;;
14528;SDS011;7351;51.194;4.098;2023-01-29T04:34:15;17.83;;;16.80;;
14528;SDS011;7351;51.194;4.098;2023-01-29T04:36:55;18.10;;;17.00;;
14528;SDS011;7351;51.194;4.098;2023-01-29T04:39:33;17.50;;;16.33;;
14528;SDS011;7351;51.194;4.098;2023-01-29T04:42:11;19.03;;;17.83;;
14528;SDS011;7351;51.194;4.098;2023-01-29T04:44:46;21.10;;;19.80;;
14528;SDS011;7351;51.194;4.098;2023-01-29T04:47:20;18.63;;;17.43;;
14528;SDS011;7351;51.194;4.098;2023-01-29T04:50:00;19.73;;;18.53;;
14528;SDS011;7351;51.194;4.098;2023-01-29T04:52:33;19.80;;;18.60;;
14528;SDS011;7351;51.194;4.098;2023-01-29T04:55:08;19.70;;;18.50;;
14528;SDS011;7351;51.194;4.098;2023-01-29T04:57:42;20.17;;;18.80;;
14528;SDS011;7351;51.194;4.098;2023-01-29T05:00:16;20.27;;;19.07;;
14528;SDS011;7351;51.194;4.098;2023-01-29T05:02:45;19.83;;;18.57;;
14528;SDS011;7351;51.194;4.098;2023-01-29T05:05:15;20.10;;;18.80;;
14528;SDS011;7351;51.194;4.098;2023-01-29T05:07:44;20.80;;;19.47;;
14528;SDS011;7351;51.194;4.098;2023-01-29T05:10:13;22.23;;;20.80;;
14528;SDS011;7351;51.194;4.098;2023-01-29T05:12:44;21.20;;;19.87;;
14528;SDS011;7351;51.194;4.098;2023-01-29T05:15:15;19.90;;;18.70;;
14528;SDS011;7351;51.194;4.098;2023-01-29T05:17:45;19.07;;;17.87;;
14528;SDS011;7351;51.194;4.098;2023-01-29T05:20:12;19.07;;;17.87;;
14528;SDS011;7351;51.194;4.098;2023-01-29T05:22:40;20.27;;;18.63;;
14528;SDS011;7351;51.194;4.098;2023-01-29T05:25:19;20.30;;;18.90;;
14528;SDS011;7351;51.194;4.098;2023-01-29T05:27:48;20.13;;;18.50;;
14528;SDS011;7351;51.194;4.098;2023-01-29T05:30:32;19.07;;;17.60;;
14528;SDS011;7351;51.194;4.098;2023-01-29T05:33:02;19.90;;;18.37;;
14528;SDS011;7351;51.194;4.098;2023-01-29T05:35:30;18.57;;;17.20;;
14528;SDS011;7351;51.194;4.098;2023-01-29T05:38:00;20.37;;;18.90;;
14528;SDS011;7351;51.194;4.098;2023-01-29T05:40:27;19.27;;;18.07;;
14528;SDS011;7351;51.194;4.098;2023-01-29T05:42:54;19.63;;;18.03;;
14528;SDS011;7351;51.194;4.098;2023-01-29T05:45:21;18.97;;;17.40;;
14528;SDS011;7351;51.194;4.098;2023-01-29T05:47:48;17.97;;;16.67;;
14528;SDS011;7351;51.194;4.098;2023-01-29T05:50:15;17.53;;;16.33;;
14528;SDS011;7351;51.194;4.098;2023-01-29T05:52:42;17.33;;;16.13;;
14528;SDS011;7351;51.194;4.098;2023-01-29T05:55:10;16.47;;;15.33;;
14528;SDS011;7351;51.194;4.098;2023-01-29T05:57:38;17.23;;;16.13;;
14528;SDS011;7351;51.194;4.098;2023-01-29T06:00:06;15.23;;;14.23;;
14528;SDS011;7351;51.194;4.098;2023-01-29T06:02:34;16.77;;;15.67;;
14528;SDS011;7351;51.194;4.098;2023-01-29T06:05:01;15.37;;;14.43;;
14528;SDS011;7351;51.194;4.098;2023-01-29T06:07:28;17.53;;;16.30;;
14528;SDS011;7351;51.194;4.098;2023-01-29T06:09:55;15.57;;;14.50;;
14528;SDS011;7351;51.194;4.098;2023-01-29T06:12:23;16.63;;;15.53;;
14528;SDS011;7351;51.194;4.098;2023-01-29T06:14:52;15.90;;;14.87;;
14528;SDS011;7351;51.194;4.098;2023-01-29T06:17:19;15.83;;;14.73;;
14528;SDS011;7351;51.194;4.098;2023-01-29T06:19:46;14.77;;;13.87;;
14528;SDS011;7351;51.194;4.098;2023-01-29T06:22:13;16.27;;;15.17;;
14528;SDS011;7351;51.194;4.098;2023-01-29T06:24:40;15.80;;;13.90;;
14528;SDS011;7351;51.194;4.098;2023-01-29T06:27:07;15.83;;;14.50;;
14528;SDS011;7351;51.194;4.098;2023-01-29T06:29:35;15.10;;;13.67;;
14528;SDS011;7351;51.194;4.098;2023-01-29T06:32:02;18.50;;;16.37;;
14528;SDS011;7351;51.194;4.098;2023-01-29T06:34:29;15.23;;;14.13;;
14528;SDS011;7351;51.194;4.098;2023-01-29T06:36:56;15.10;;;13.90;;
14528;SDS011;7351;51.194;4.098;2023-01-29T06:39:23;18.30;;;16.73;;
14528;SDS011;7351;51.194;4.098;2023-01-29T06:41:50;18.60;;;17.03;;
14528;SDS011;7351;51.194;4.098;2023-01-29T06:44:17;17.37;;;16.07;;
14528;SDS011;7351;51.194;4.098;2023-01-29T06:46:45;16.17;;;14.90;;
14528;SDS011;7351;51.194;4.098;2023-01-29T06:49:12;16.20;;;14.87;;
14528;SDS011;7351;51.194;4.098;2023-01-29T06:51:39;16.03;;;14.90;;
14528;SDS011;7351;51.194;4.098;2023-01-29T06:54:07;15.67;;;14.43;;
14528;SDS011;7351;51.194;4.098;2023-01-29T06:56:34;18.10;;;16.43;;
14528;SDS011;7351;51.194;4.098;2023-01-29T06:59:01;17.70;;;16.50;;
14528;SDS011;7351;51.194;4.098;2023-01-29T07:01:28;17.20;;;15.97;;
14528;SDS011;7351;51.194;4.098;2023-01-29T07:03:57;16.27;;;15.27;;
14528;SDS011;7351;51.194;4.098;2023-01-29T07:06:26;17.17;;;15.70;;
14528;SDS011;7351;51.194;4.098;2023-01-29T07:08:54;17.40;;;16.37;;
14528;SDS011;7351;51.194;4.098;2023-01-29T07:11:21;15.30;;;14.17;;
14528;SDS011;7351;51.194;4.098;2023-01-29T07:13:48;16.70;;;15.27;;
14528;SDS011;7351;51.194;4.098;2023-01-29T07:16:15;16.57;;;15.57;;
14528;SDS011;7351;51.194;4.098;2023-01-29T07:18:43;16.67;;;15.67;;
14528;SDS011;7351;51.194;4.098;2023-01-29T07:21:11;15.93;;;14.83;;
14528;SDS011;7351;51.194;4.098;2023-01-29T07:23:38;15.63;;;14.53;;
14528;SDS011;7351;51.194;4.098;2023-01-29T07:26:05;16.40;;;15.40;;
14528;SDS011;7351;51.194;4.098;2023-01-29T07:28:34;14.43;;;13.47;;
14528;SDS011;7351;51.194;4.098;2023-01-29T07:31:03;15.87;;;14.87;;
14528;SDS011;7351;51.194;4.098;2023-01-29T07:33:30;17.30;;;16.20;;
14528;SDS011;7351;51.194;4.098;2023-01-29T07:35:57;14.73;;;13.83;;
14528;SDS011;7351;51.194;4.098;2023-01-29T07:38:26;16.17;;;14.90;;
14528;SDS011;7351;51.194;4.098;2023-01-29T07:40:53;16.83;;;15.40;;
14528;SDS011;7351;51.194;4.098;2023-01-29T07:43:20;13.40;;;12.60;;
14528;SDS011;7351;51.194;4.098;2023-01-29T07:45:48;14.23;;;13.23;;
14528;SDS011;7351;51.194;4.098;2023-01-29T07:48:15;16.43;;;15.43;;
14528;SDS011;7351;51.194;4.098;2023-01-29T07:50:43;17.20;;;16.20;;
14528;SDS011;7351;51.194;4.098;2023-01-29T07:53:11;17.93;;;16.73;;
14528;SDS011;7351;51.194;4.098;2023-01-29T07:55:41;15.77;;;14.60;;
14528;SDS011;7351;51.194;4.098;2023-01-29T07:58:10;15.47;;;14.43;;
14528;SDS011;7351;51.194;4.098;2023-01-29T08:00:37;14.20;;;13.30;;
14528;SDS011;7351;51.194;4.098;2023-01-29T08:03:04;18.40;;;16.93;;
14528;SDS011;7351;51.194;4.098;2023-01-29T08:05:32;15.97;;;14.97;;
14528;SDS011;7351;51.194;4.098;2023-01-29T08:08:00;15.80;;;14.60;;
14528;SDS011;7351;51.194;4.098;2023-01-29T08:10:27;17.77;;;15.70;;
14528;SDS011;7351;51.194;4.098;2023-01-29T08:12:56;17.90;;;16.43;;
14528;SDS011;7351;51.194;4.098;2023-01-29T08:15:24;16.33;;;15.33;;
14528;SDS011;7351;51.194;4.098;2023-01-29T08:17:52;15.83;;;14.37;;
14528;SDS011;7351;51.194;4.098;2023-01-29T08:20:19;15.83;;;14.53;;
14528;SDS011;7351;51.194;4.098;2023-01-29T08:22:47;15.50;;;14.47;;
14528;SDS011;7351;51.194;4.098;2023-01-29T08:25:14;14.30;;;13.40;;
14528;SDS011;7351;51.194;4.098;2023-01-29T08:27:41;14.50;;;13.43;;
14528;SDS011;7351;51.194;4.098;2023-01-29T08:30:11;14.80;;;13.63;;
14528;SDS011;7351;51.194;4.098;2023-01-29T08:32:38;14.73;;;13.63;;
14528;SDS011;7351;51.194;4.098;2023-01-29T08:35:05;14.07;;;12.87;;
14528;SDS011;7351;51.194;4.098;2023-01-29T08:37:33;15.40;;;14.20;;
14528;SDS011;7351;51.194;4.098;2023-01-29T08:40:00;15.23;;;14.13;;
14528;SDS011;7351;51.194;4.098;2023-01-29T08:42:27;15.27;;;13.93;;
14528;SDS011;7351;51.194;4.098;2023-01-29T08:44:54;14.03;;;12.93;;
14528;SDS011;7351;51.194;4.098;2023-01-29T08:47:22;13.30;;;12.50;;
14528;SDS011;7351;51.194;4.098;2023-01-29T08:49:49;14.37;;;13.17;;
14528;SDS011;7351;51.194;4.098;2023-01-29T08:52:16;14.87;;;13.77;;
14528;SDS011;7351;51.194;4.098;2023-01-29T08:54:43;14.83;;;13.73;;
14528;SDS011;7351;51.194;4.098;2023-01-29T08:57:10;13.07;;;11.67;;
14528;SDS011;7351;51.194;4.098;2023-01-29T08:59:37;12.57;;;11.57;;
14528;SDS011;7351;51.194;4.098;2023-01-29T09:02:04;12.57;;;10.90;;
14528;SDS011;7351;51.194;4.098;2023-01-29T09:04:32;13.03;;;11.93;;
14528;SDS011;7351;51.194;4.098;2023-01-29T09:06:59;13.27;;;12.17;;
14528;SDS011;7351;51.194;4.098;2023-01-29T09:09:28;12.77;;;11.87;;
14528;SDS011;7351;51.194;4.098;2023-01-29T09:11:55;14.80;;;13.37;;
14528;SDS011;7351;51.194;4.098;2023-01-29T09:14:22;12.67;;;11.57;;
14528;SDS011;7351;51.194;4.098;2023-01-29T09:16:49;14.23;;;12.90;;
14528;SDS011;7351;51.194;4.098;2023-01-29T09:19:16;14.33;;;13.07;;
14528;SDS011;7351;51.194;4.098;2023-01-29T09:21:45;13.20;;;12.13;;
14528;SDS011;7351;51.194;4.098;2023-01-29T09:24:13;13.77;;;12.50;;
14528;SDS011;7351;51.194;4.098;2023-01-29T09:26:40;12.57;;;11.77;;
14528;SDS011;7351;51.194;4.098;2023-01-29T09:29:11;14.50;;;13.40;;
14528;SDS011;7351;51.194;4.098;2023-01-29T09:31:38;13.60;;;12.43;;
14528;SDS011;7351;51.194;4.098;2023-01-29T09:34:05;13.90;;;12.73;;
14528;SDS011;7351;51.194;4.098;2023-01-29T09:36:32;14.40;;;13.30;;
14528;SDS011;7351;51.194;4.098;2023-01-29T09:39:00;13.93;;;13.13;;
14528;SDS011;7351;51.194;4.098;2023-01-29T09:41:32;13.17;;;12.37;;
14528;SDS011;7351;51.194;4.098;2023-01-29T09:44:09;14.30;;;13.00;;
14528;SDS011;7351;51.194;4.098;2023-01-29T09:46:41;12.93;;;11.73;;
14528;SDS011;7351;51.194;4.098;2023-01-29T09:49:11;14.50;;;13.17;;
14528;SDS011;7351;51.194;4.098;2023-01-29T09:51:42;15.30;;;13.77;;
14528;SDS011;7351;51.194;4.098;2023-01-29T09:54:17;13.90;;;12.90;;
14528;SDS011;7351;51.194;4.098;2023-01-29T09:56:49;13.83;;;12.80;;
14528;SDS011;7351;51.194;4.098;2023-01-29T09:59:21;14.83;;;13.50;;
14528;SDS011;7351;51.194;4.098;2023-01-29T10:01:54;15.73;;;14.20;;
14528;SDS011;7351;51.194;4.098;2023-01-29T10:07:23;15.13;;;13.73;;
14528;SDS011;7351;51.194;4.098;2023-01-29T10:10:10;15.90;;;14.30;;
14528;SDS011;7351;51.194;4.098;2023-01-29T10:12:59;15.47;;;14.47;;
14528;SDS011;7351;51.194;4.098;2023-01-29T10:15:41;14.50;;;13.40;;
14528;SDS011;7351;51.194;4.098;2023-01-29T10:18:29;15.00;;;13.70;;
14528;SDS011;7351;51.194;4.098;2023-01-29T10:21:06;13.87;;;12.97;;
14528;SDS011;7351;51.194;4.098;2023-01-29T10:23:45;13.70;;;12.70;;
14528;SDS011;7351;51.194;4.098;2023-01-29T10:26:17;13.57;;;12.53;;
14528;SDS011;7351;51.194;4.098;2023-01-29T10:28:49;14.13;;;13.07;;
14528;SDS011;7351;51.194;4.098;2023-01-29T10:31:21;13.77;;;12.77;;
14528;SDS011;7351;51.194;4.098;2023-01-29T10:33:56;15.33;;;14.13;;
14528;SDS011;7351;51.194;4.098;2023-01-29T10:36:31;14.87;;;13.87;;
14528;SDS011;7351;51.194;4.098;2023-01-29T10:39:02;14.87;;;13.57;;
14528;SDS011;7351;51.194;4.098;2023-01-29T10:41:46;13.73;;;12.93;;
14528;SDS011;7351;51.194;4.098;2023-01-29T10:44:22;14.77;;;13.77;;
14528;SDS011;7351;51.194;4.098;2023-01-29T10:49:56;14.50;;;13.40;;
14528;SDS011;7351;51.194;4.098;2023-01-29T10:52:40;14.20;;;13.10;;
14528;SDS011;7351;51.194;4.098;2023-01-29T10:55:19;15.10;;;13.83;;
14528;SDS011;7351;51.194;4.098;2023-01-29T10:58:03;14.87;;;13.93;;
14528;SDS011;7351;51.194;4.098;2023-01-29T11:00:35;14.67;;;13.67;;
14528;SDS011;7351;51.194;4.098;2023-01-29T11:03:11;16.20;;;14.87;;
14528;SDS011;7351;51.194;4.098;2023-01-29T11:05:42;15.80;;;14.67;;
14528;SDS011;7351;51.194;4.098;2023-01-29T11:08:12;16.50;;;15.10;;
14528;SDS011;7351;51.194;4.098;2023-01-29T11:10:46;15.80;;;14.80;;
14528;SDS011;7351;51.194;4.098;2023-01-29T11:13:27;17.20;;;16.10;;
14528;SDS011;7351;51.194;4.098;2023-01-29T11:15:57;16.73;;;15.70;;
14528;SDS011;7351;51.194;4.098;2023-01-29T11:18:24;15.63;;;14.30;;
14528;SDS011;7351;51.194;4.098;2023-01-29T11:20:58;17.23;;;16.03;;
14528;SDS011;7351;51.194;4.098;2023-01-29T11:23:28;19.23;;;18.00;;
14528;SDS011;7351;51.194;4.098;2023-01-29T11:25:56;18.47;;;17.17;;
14528;SDS011;7351;51.194;4.098;2023-01-29T11:28:36;17.50;;;16.40;;
14528;SDS011;7351;51.194;4.098;2023-01-29T11:31:13;16.50;;;15.43;;
14528;SDS011;7351;51.194;4.098;2023-01-29T11:33:45;18.20;;;16.93;;
14528;SDS011;7351;51.194;4.098;2023-01-29T11:39:17;16.53;;;15.30;;
14528;SDS011;7351;51.194;4.098;2023-01-29T11:41:49;16.63;;;15.40;;
14528;SDS011;7351;51.194;4.098;2023-01-29T11:44:26;17.07;;;15.67;;
14528;SDS011;7351;51.194;4.098;2023-01-29T11:46:55;17.73;;;16.23;;
14528;SDS011;7351;51.194;4.098;2023-01-29T11:49:29;16.10;;;14.90;;
14528;SDS011;7351;51.194;4.098;2023-01-29T11:51:59;16.47;;;15.27;;
14528;SDS011;7351;51.194;4.098;2023-01-29T11:54:29;15.67;;;14.67;;
14528;SDS011;7351;51.194;4.098;2023-01-29T11:56:59;15.97;;;14.57;;
14528;SDS011;7351;51.194;4.098;2023-01-29T11:59:39;16.13;;;14.93;;
14528;SDS011;7351;51.194;4.098;2023-01-29T12:02:15;15.53;;;14.40;;
14528;SDS011;7351;51.194;4.098;2023-01-29T12:04:52;17.23;;;15.77;;
14528;SDS011;7351;51.194;4.098;2023-01-29T12:07:22;17.07;;;15.80;;
14528;SDS011;7351;51.194;4.098;2023-01-29T12:09:51;16.83;;;15.33;;
14528;SDS011;7351;51.194;4.098;2023-01-29T12:12:26;16.53;;;15.23;;
14528;SDS011;7351;51.194;4.098;2023-01-29T12:15:18;15.87;;;14.67;;
14528;SDS011;7351;51.194;4.098;2023-01-29T12:17:55;17.13;;;15.93;;
14528;SDS011;7351;51.194;4.098;2023-01-29T12:20:27;17.60;;;16.13;;
14528;SDS011;7351;51.194;4.098;2023-01-29T12:23:10;17.07;;;15.57;;
14528;SDS011;7351;51.194;4.098;2023-01-29T12:25:49;16.73;;;15.40;;
14528;SDS011;7351;51.194;4.098;2023-01-29T12:28:26;16.37;;;15.17;;
14528;SDS011;7351;51.194;4.098;2023-01-29T12:31:10;17.10;;;15.67;;
14528;SDS011;7351;51.194;4.098;2023-01-29T12:33:47;16.37;;;15.13;;
14528;SDS011;7351;51.194;4.098;2023-01-29T12:36:18;16.30;;;14.77;;
14528;SDS011;7351;51.194;4.098;2023-01-29T12:38:51;17.03;;;15.43;;
14528;SDS011;7351;51.194;4.098;2023-01-29T12:41:23;18.13;;;16.73;;
14528;SDS011;7351;51.194;4.098;2023-01-29T12:43:56;16.27;;;14.87;;
14528;SDS011;7351;51.194;4.098;2023-01-29T12:46:30;16.63;;;15.27;;
14528;SDS011;7351;51.194;4.098;2023-01-29T12:49:00;17.40;;;16.20;;
14528;SDS011;7351;51.194;4.098;2023-01-29T12:51:30;17.50;;;16.00;;
14528;SDS011;7351;51.194;4.098;2023-01-29T12:54:02;15.73;;;14.63;;
14528;SDS011;7351;51.194;4.098;2023-01-29T12:56:33;18.57;;;16.33;;
14528;SDS011;7351;51.194;4.098;2023-01-29T12:59:04;18.73;;;16.70;;
14528;SDS011;7351;51.194;4.098;2023-01-29T13:01:39;17.40;;;16.03;;
14528;SDS011;7351;51.194;4.098;2023-01-29T13:04:13;17.13;;;15.93;;
14528;SDS011;7351;51.194;4.098;2023-01-29T13:06:45;18.47;;;17.17;;
14528;SDS011;7351;51.194;4.098;2023-01-29T13:09:18;19.00;;;17.80;;
14528;SDS011;7351;51.194;4.098;2023-01-29T13:11:50;17.53;;;16.20;;
14528;SDS011;7351;51.194;4.098;2023-01-29T13:14:20;17.40;;;16.20;;
14528;SDS011;7351;51.194;4.098;2023-01-29T13:16:52;19.40;;;18.13;;
14528;SDS011;7351;51.194;4.098;2023-01-29T13:19:27;18.70;;;17.30;;
14528;SDS011;7351;51.194;4.098;2023-01-29T13:21:58;17.63;;;16.47;;
14528;SDS011;7351;51.194;4.098;2023-01-29T13:24:30;17.87;;;16.43;;
14528;SDS011;7351;51.194;4.098;2023-01-29T13:27:01;16.13;;;14.93;;
14528;SDS011;7351;51.194;4.098;2023-01-29T13:29:29;17.00;;;15.80;;
14528;SDS011;7351;51.194;4.098;2023-01-29T13:31:58;15.53;;;14.23;;
14528;SDS011;7351;51.194;4.098;2023-01-29T13:34:26;17.07;;;15.97;;
14528;SDS011;7351;51.194;4.098;2023-01-29T13:36:57;15.87;;;14.77;;
14528;SDS011;7351;51.194;4.098;2023-01-29T13:39:27;16.90;;;15.50;;
14528;SDS011;7351;51.194;4.098;2023-01-29T13:41:56;15.73;;;14.43;;
14528;SDS011;7351;51.194;4.098;2023-01-29T13:44:25;15.30;;;14.30;;
14528;SDS011;7351;51.194;4.098;2023-01-29T13:46:55;16.37;;;15.30;;
14528;SDS011;7351;51.194;4.098;2023-01-29T13:49:30;17.60;;;16.23;;
14528;SDS011;7351;51.194;4.098;2023-01-29T13:52:14;15.47;;;14.37;;
14528;SDS011;7351;51.194;4.098;2023-01-29T13:54:49;14.87;;;13.77;;
14528;SDS011;7351;51.194;4.098;2023-01-29T14:12:29;14.63;;;13.63;;
14528;SDS011;7351;51.194;4.098;2023-01-29T14:15:31;17.10;;;15.80;;
14528;SDS011;7351;51.194;4.098;2023-01-29T14:18:02;16.33;;;15.10;;
14528;SDS011;7351;51.194;4.098;2023-01-29T14:20:34;15.90;;;14.60;;
14528;SDS011;7351;51.194;4.098;2023-01-29T14:23:05;16.50;;;15.43;;
14528;SDS011;7351;51.194;4.098;2023-01-29T14:25:43;17.03;;;15.43;;
14528;SDS011;7351;51.194;4.098;2023-01-29T14:28:13;15.83;;;14.77;;
14528;SDS011;7351;51.194;4.098;2023-01-29T14:30:45;17.23;;;16.03;;
14528;SDS011;7351;51.194;4.098;2023-01-29T14:33:22;14.63;;;13.53;;
14528;SDS011;7351;51.194;4.098;2023-01-29T14:35:53;18.03;;;16.83;;
14528;SDS011;7351;51.194;4.098;2023-01-29T14:38:22;16.10;;;14.90;;
14528;SDS011;7351;51.194;4.098;2023-01-29T14:40:50;15.27;;;14.33;;
14528;SDS011;7351;51.194;4.098;2023-01-29T14:43:29;16.93;;;15.73;;
14528;SDS011;7351;51.194;4.098;2023-01-29T14:45:56;14.47;;;13.47;;
14528;SDS011;7351;51.194;4.098;2023-01-29T14:49:05;15.90;;;14.70;;
14528;SDS011;7351;51.194;4.098;2023-01-29T14:51:34;14.30;;;13.30;;
14528;SDS011;7351;51.194;4.098;2023-01-29T14:54:03;14.53;;;13.57;;
14528;SDS011;7351;51.194;4.098;2023-01-29T14:56:39;17.30;;;16.17;;
14528;SDS011;7351;51.194;4.098;2023-01-29T14:59:12;15.23;;;14.13;;
14528;SDS011;7351;51.194;4.098;2023-01-29T15:01:45;15.07;;;14.03;;
14528;SDS011;7351;51.194;4.098;2023-01-29T15:04:18;13.70;;;12.70;;
14528;SDS011;7351;51.194;4.098;2023-01-29T15:06:51;13.90;;;12.60;;
14528;SDS011;7351;51.194;4.098;2023-01-29T15:09:28;14.90;;;13.60;;
14528;SDS011;7351;51.194;4.098;2023-01-29T15:12:02;15.67;;;14.57;;
14528;SDS011;7351;51.194;4.098;2023-01-29T15:14:42;14.27;;;12.70;;
14528;SDS011;7351;51.194;4.098;2023-01-29T15:17:21;14.67;;;13.57;;
14528;SDS011;7351;51.194;4.098;2023-01-29T15:19:53;14.00;;;13.00;;
14528;SDS011;7351;51.194;4.098;2023-01-29T15:22:21;14.13;;;12.97;;
14528;SDS011;7351;51.194;4.098;2023-01-29T15:25:00;14.47;;;13.33;;
14528;SDS011;7351;51.194;4.098;2023-01-29T15:27:30;16.97;;;15.47;;